Time,TemperatureF,DewpointF,PressureIn,WindDirection,WindDirectionDegrees,WindSpeedMPH,WindSpeedGustMPH,Humidity,HourlyPrecipIn,Conditions,Clouds,dailyrainin,SolarRadiationWatts/m^2,SoftwareType,DateUTC
2013-03-27 00:01:00,32.0,24.0,-100.00,NNE,12,3.0,11.0,71,0.00,,,0.03,0.000000,,2013-03-27 04:01:00,
2013-03-27 00:33:00,32.0,24.0,-100.00,NNE,12,3.0,11.0,71,0.00,,,0.03,0.000000,,2013-03-27 04:33:00,
2013-03-27 00:43:00,32.0,24.0,-100.00,NNE,12,3.0,11.0,71,0.00,,,0.03,0.000000,,2013-03-27 04:43:00,
2013-03-27 00:53:00,32.0,24.0,-100.00,NNE,12,3.0,11.0,71,0.00,,,0.03,0.000000,,2013-03-27 04:53:00,
2013-03-27 01:01:00,32.0,23.0,-100.00,North,357,4.0,11.0,70,0.00,,,0.03,0.000000,,2013-03-27 05:01:00,
2013-03-27 01:23:00,32.0,23.0,-100.00,North,357,4.0,11.0,70,0.00,,,0.03,0.000000,,2013-03-27 05:23:00,
2013-03-27 01:33:00,32.0,23.0,-100.00,North,357,4.0,11.0,70,0.00,,,0.03,0.000000,,2013-03-27 05:33:00,
2013-03-27 01:42:00,32.0,23.0,-100.00,North,357,4.0,11.0,70,0.00,,,0.03,0.000000,,2013-03-27 05:42:00,
2013-03-27 01:53:00,32.0,23.0,-100.00,North,357,4.0,11.0,70,0.00,,,0.03,0.000000,,2013-03-27 05:53:00,
2013-03-27 02:01:00,31.0,21.0,-100.00,NW,326,3.0,12.0,65,0.00,,,0.03,0.000000,,2013-03-27 06:01:00,
2013-03-27 02:32:00,31.0,21.0,-100.00,NW,326,3.0,12.0,65,0.00,,,0.03,0.000000,,2013-03-27 06:32:00,
2013-03-27 02:42:00,31.0,21.0,-100.00,NW,326,3.0,12.0,65,0.00,,,0.03,0.000000,,2013-03-27 06:42:00,
2013-03-27 02:53:00,31.0,21.0,-100.00,NW,326,3.0,12.0,65,0.00,,,0.03,0.000000,,2013-03-27 06:53:00,
2013-03-27 03:01:00,30.0,20.0,-100.00,NNW,340,4.0,10.0,67,0.00,,,0.03,0.000000,,2013-03-27 07:01:00,
2013-03-27 03:32:00,30.0,20.0,-100.00,NNW,340,4.0,10.0,67,0.00,,,0.03,0.000000,,2013-03-27 07:32:00,
2013-03-27 03:43:00,30.0,20.0,-100.00,NNW,340,4.0,10.0,67,0.00,,,0.03,0.000000,,2013-03-27 07:43:00,
2013-03-27 03:54:00,30.0,20.0,-100.00,NNW,340,4.0,10.0,67,0.00,,,0.03,0.000000,,2013-03-27 07:54:00,
2013-03-27 04:01:00,30.0,23.0,-100.00,South,170,3.0,8.0,75,0.00,,,0.03,0.000000,,2013-03-27 08:01:00,
2013-03-27 04:32:00,30.0,23.0,-100.00,South,170,3.0,8.0,75,0.00,,,0.03,0.000000,,2013-03-27 08:32:00,
2013-03-27 04:43:00,30.0,23.0,-100.00,South,170,3.0,8.0,75,0.00,,,0.03,0.000000,,2013-03-27 08:43:00,
2013-03-27 04:52:00,30.0,23.0,-100.00,South,170,3.0,8.0,75,0.00,,,0.03,0.000000,,2013-03-27 08:52:00,
2013-03-27 05:01:00,29.0,22.0,-100.00,West,277,3.0,9.0,74,0.00,,,0.03,0.000000,,2013-03-27 09:01:00,
2013-03-27 05:33:00,29.0,22.0,-100.00,West,277,3.0,9.0,74,0.00,,,0.03,0.000000,,2013-03-27 09:33:00,
2013-03-27 05:42:00,29.0,22.0,-100.00,West,277,3.0,9.0,74,0.00,,,0.03,0.000000,,2013-03-27 09:42:00,
2013-03-27 05:52:00,29.0,22.0,-100.00,West,277,3.0,9.0,74,0.00,,,0.03,0.000000,,2013-03-27 09:52:00,
2013-03-27 06:01:00,29.0,21.0,-100.00,WSW,243,5.0,11.0,72,0.00,,,0.03,0.000000,,2013-03-27 10:01:00,
2013-03-27 06:32:00,29.0,21.0,-100.00,WSW,243,5.0,11.0,72,0.00,,,0.03,0.000000,,2013-03-27 10:32:00,
2013-03-27 06:42:00,29.0,21.0,-100.00,WSW,243,5.0,11.0,72,0.00,,,0.03,0.000000,,2013-03-27 10:42:00,
2013-03-27 06:53:00,29.0,21.0,-100.00,WSW,243,5.0,11.0,72,0.00,,,0.03,0.000000,,2013-03-27 10:53:00,
2013-03-27 07:01:00,29.0,22.0,-100.00,West,260,2.0,10.0,76,0.00,,,0.03,0.000000,,2013-03-27 11:01:00,
2013-03-27 07:32:00,29.0,22.0,-100.00,West,260,2.0,10.0,76,0.00,,,0.03,0.000000,,2013-03-27 11:32:00,
2013-03-27 07:42:00,29.0,22.0,-100.00,West,260,2.0,10.0,76,0.00,,,0.03,0.000000,,2013-03-27 11:42:00,
2013-03-27 07:53:00,29.0,22.0,-100.00,West,260,2.0,10.0,76,0.00,,,0.03,0.000000,,2013-03-27 11:53:00,
2013-03-27 08:01:00,30.0,23.0,-100.00,South,187,2.0,9.0,76,0.00,,,0.03,13.000000,,2013-03-27 12:01:00,
2013-03-27 08:32:00,30.0,23.0,-100.00,South,187,2.0,9.0,76,0.00,,,0.03,13.000000,,2013-03-27 12:32:00,
2013-03-27 08:43:00,30.0,23.0,-100.00,South,187,2.0,9.0,76,0.00,,,0.03,13.000000,,2013-03-27 12:43:00,
2013-03-27 08:52:00,30.0,23.0,-100.00,South,187,2.0,9.0,76,0.00,,,0.03,13.000000,,2013-03-27 12:52:00,
2013-03-27 09:01:00,31.0,23.0,-100.00,SW,224,3.0,7.0,72,0.00,,,0.03,36.000000,,2013-03-27 13:01:00,
2013-03-27 09:33:00,31.0,23.0,-100.00,SW,224,3.0,7.0,72,0.00,,,0.03,36.000000,,2013-03-27 13:33:00,
2013-03-27 09:42:00,31.0,23.0,-100.00,SW,224,3.0,7.0,72,0.00,,,0.03,36.000000,,2013-03-27 13:42:00,
2013-03-27 09:53:00,31.0,23.0,-100.00,SW,224,3.0,7.0,72,0.00,,,0.03,36.000000,,2013-03-27 13:53:00,
2013-03-27 10:01:00,34.0,27.0,-100.00,West,280,3.0,9.0,75,0.00,,,0.02,173.000000,,2013-03-27 14:01:00,
2013-03-27 10:22:00,34.0,27.0,-100.00,West,280,3.0,9.0,75,0.00,,,0.02,173.000000,,2013-03-27 14:22:00,
2013-03-27 10:32:00,34.0,27.0,-100.00,West,280,3.0,9.0,75,0.00,,,0.02,173.000000,,2013-03-27 14:32:00,
2013-03-27 10:42:00,34.0,27.0,-100.00,West,280,3.0,9.0,75,0.00,,,0.02,173.000000,,2013-03-27 14:42:00,
2013-03-27 10:52:00,34.0,27.0,-100.00,West,280,3.0,9.0,75,0.00,,,0.02,173.000000,,2013-03-27 14:52:00,
2013-03-27 11:01:00,34.0,21.0,-100.00,WNW,303,4.0,9.0,59,0.00,,,0.01,284.000000,,2013-03-27 15:01:00,
2013-03-27 11:33:00,34.0,21.0,-100.00,WNW,303,4.0,9.0,59,0.00,,,0.01,284.000000,,2013-03-27 15:33:00,
2013-03-27 11:43:00,34.0,21.0,-100.00,WNW,303,4.0,9.0,59,0.00,,,0.01,284.000000,,2013-03-27 15:43:00,
2013-03-27 11:53:00,34.0,21.0,-100.00,WNW,303,4.0,9.0,59,0.00,,,0.01,284.000000,,2013-03-27 15:53:00,
2013-03-27 14:01:00,36.0,18.0,-100.00,NW,318,5.0,16.0,47,-99.99,,,0.00,336.000000,,2013-03-27 18:01:00,
2013-03-27 14:33:00,36.0,18.0,-100.00,NW,318,5.0,16.0,47,-99.99,,,0.00,336.000000,,2013-03-27 18:33:00,
2013-03-27 14:42:00,36.0,18.0,-100.00,NW,318,5.0,16.0,47,-99.99,,,0.00,336.000000,,2013-03-27 18:42:00,
2013-03-27 14:53:00,36.0,18.0,-100.00,NW,318,5.0,16.0,47,-99.99,,,0.00,336.000000,,2013-03-27 18:53:00,
2013-03-27 15:01:00,38.0,24.0,-100.00,NW,309,4.0,11.0,57,0.00,,,0.00,321.000000,,2013-03-27 19:01:00,
2013-03-27 15:42:00,38.0,24.0,-100.00,NW,309,4.0,11.0,57,0.00,,,0.00,321.000000,,2013-03-27 19:42:00,
2013-03-27 15:52:00,38.0,24.0,-100.00,NW,309,4.0,11.0,57,0.00,,,0.00,321.000000,,2013-03-27 19:52:00,
2013-03-27 16:01:00,37.0,25.0,-100.00,WNW,287,4.0,12.0,61,0.00,,,0.00,392.000000,,2013-03-27 20:01:00,
2013-03-27 16:32:00,37.0,25.0,-100.00,WNW,287,4.0,12.0,61,0.00,,,0.00,392.000000,,2013-03-27 20:32:00,
2013-03-27 16:43:00,37.0,25.0,-100.00,WNW,287,4.0,12.0,61,0.00,,,0.00,392.000000,,2013-03-27 20:43:00,
2013-03-27 16:52:00,37.0,25.0,-100.00,WNW,287,4.0,12.0,61,0.00,,,0.00,392.000000,,2013-03-27 20:52:00,
2013-03-27 17:01:00,36.0,24.0,-100.00,WNW,289,3.0,14.0,61,0.00,,,0.00,290.000000,,2013-03-27 21:01:00,
2013-03-27 17:33:00,36.0,24.0,-100.00,WNW,289,3.0,14.0,61,0.00,,,0.00,290.000000,,2013-03-27 21:33:00,
2013-03-27 17:44:00,36.0,24.0,-100.00,WNW,289,3.0,14.0,61,0.00,,,0.00,290.000000,,2013-03-27 21:44:00,
2013-03-27 17:52:00,36.0,24.0,-100.00,WNW,289,3.0,14.0,61,0.00,,,0.00,290.000000,,2013-03-27 21:52:00,
2013-03-27 18:01:00,35.0,20.0,-100.00,WNW,303,6.0,10.0,54,0.00,,,0.00,234.000000,,2013-03-27 22:01:00,
2013-03-27 18:23:00,35.0,20.0,-100.00,WNW,303,6.0,10.0,54,0.00,,,0.00,234.000000,,2013-03-27 22:23:00,
2013-03-27 18:33:00,35.0,20.0,-100.00,WNW,303,6.0,10.0,54,0.00,,,0.00,234.000000,,2013-03-27 22:33:00,
2013-03-27 18:42:00,35.0,20.0,-100.00,WNW,303,6.0,10.0,54,0.00,,,0.00,234.000000,,2013-03-27 22:42:00,
2013-03-27 18:53:00,35.0,20.0,-100.00,WNW,303,6.0,10.0,54,0.00,,,0.00,234.000000,,2013-03-27 22:53:00,
2013-03-27 19:01:00,35.0,21.0,-100.00,WNW,290,4.0,12.0,56,0.00,,,0.00,84.000000,,2013-03-27 23:01:00,
2013-03-27 19:32:00,35.0,21.0,-100.00,WNW,290,4.0,12.0,56,0.00,,,0.00,84.000000,,2013-03-27 23:32:00,
2013-03-27 19:43:00,35.0,21.0,-100.00,WNW,290,4.0,12.0,56,0.00,,,0.00,84.000000,,2013-03-27 23:43:00,
2013-03-27 19:52:00,35.0,21.0,-100.00,WNW,290,4.0,12.0,56,0.00,,,0.00,84.000000,,2013-03-27 23:52:00,